Time;durP1;ratioP1;P1;durP2;ratioP2;P2;SDS_P1;SDS_P2;PMS_P1;PMS_P2;Temp;Humidity;BMP_temperature;BMP_pressure;BME280_temperature;BME280_humidity;BME280_pressure;Samples;Min_cycle;Max_cycle;Signal;HPM_P1;HPM_P2
2021/07/27 00:02:07;;;;;;;19.65;11.15;;;;;;;;;;5052711;28;20533;-45
2021/07/27 00:04:34;;;;;;;24.80;12.32;;;;;;;;;;5052482;28;20074;-46
2021/07/27 00:07:00;;;;;;;20.77;11.40;;;;;;;;;;5052601;28;20041;-45
2021/07/27 00:09:26;;;;;;;17.15;11.73;;;;;;;;;;5052479;28;20067;-46
2021/07/27 00:11:52;;;;;;;14.90;10.65;;;;;;;;;;5052643;28;20032;-45
2021/07/27 00:14:18;;;;;;;17.25;10.23;;;;;;;;;;5052335;28;20025;-45
2021/07/27 00:16:46;;;;;;;16.13;10.38;;;;;;;;;;5055348;28;20053;-45
2021/07/27 00:19:12;;;;;;;14.38;10.52;;;;;;;;;;5056152;28;20524;-46
2021/07/27 00:21:38;;;;;;;18.15;11.63;;;;;;;;;;5056495;28;20021;-46
2021/07/27 00:24:05;;;;;;;16.60;10.73;;;;;;;;;;5056362;28;20016;-44
2021/07/27 00:26:31;;;;;;;16.75;9.98;;;;;;;;;;5056071;28;20501;-44
2021/07/27 00:28:57;;;;;;;17.48;10.27;;;;;;;;;;5056186;28;20396;-44
2021/07/27 00:31:24;;;;;;;18.73;10.35;;;;;;;;;;5055993;28;20028;-45
2021/07/27 00:33:50;;;;;;;15.95;10.43;;;;;;;;;;5055878;28;20021;-44
2021/07/27 00:36:16;;;;;;;18.63;11.95;;;;;;;;;;5056013;28;20104;-45
2021/07/27 00:38:42;;;;;;;19.98;10.73;;;;;;;;;;5055606;28;20028;-44
2021/07/27 00:41:08;;;;;;;19.85;11.10;;;;;;;;;;5055695;28;20474;-45
2021/07/27 00:43:34;;;;;;;17.23;10.52;;;;;;;;;;5055701;28;20386;-44
2021/07/27 00:46:00;;;;;;;20.52;10.77;;;;;;;;;;5055514;28;20043;-45
2021/07/27 00:48:26;;;;;;;16.98;10.48;;;;;;;;;;5055525;28;20037;-44
2021/07/27 00:50:52;;;;;;;16.00;10.32;;;;;;;;;;5055677;28;20021;-44
2021/07/27 00:53:19;;;;;;;19.00;9.57;;;;;;;;;;5055372;28;20021;-44
2021/07/27 00:55:45;;;;;;;16.65;10.20;;;;;;;;;;5055066;28;20481;-44
2021/07/27 00:58:11;;;;;;;15.57;10.35;;;;;;;;;;5055250;28;20033;-44
2021/07/27 01:00:37;;;;;;;19.25;10.73;;;;;;;;;;5055320;28;20061;-44
2021/07/27 01:03:03;;;;;;;17.25;10.80;;;;;;;;;;5055233;28;20028;-46
2021/07/27 01:05:29;;;;;;;16.17;10.38;;;;;;;;;;5055189;28;20033;-44
2021/07/27 01:07:58;;;;;;;19.33;11.90;;;;;;;;;;5055199;28;20059;-44
2021/07/27 01:10:24;;;;;;;18.70;10.98;;;;;;;;;;5055075;28;20099;-44
2021/07/27 01:12:50;;;;;;;16.55;10.20;;;;;;;;;;5055130;28;20021;-43
2021/07/27 01:15:17;;;;;;;19.48;10.63;;;;;;;;;;5054873;28;20045;-46
2021/07/27 01:17:43;;;;;;;16.98;11.27;;;;;;;;;;5054829;28;20049;-46
2021/07/27 01:39:32;;;;;;;17.80;12.00;;;;;;;;;;5032748;28;20040;-45
2021/07/27 01:42:05;;;;;;;19.83;10.55;;;;;;;;;;5032705;28;20025;-47
2021/07/27 01:44:32;;;;;;;13.57;10.38;;;;;;;;;;5031879;28;20046;-47
2021/07/27 01:46:58;;;;;;;18.75;11.85;;;;;;;;;;5032240;28;20405;-46
2021/07/27 01:49:24;;;;;;;17.65;12.50;;;;;;;;;;5032268;28;20030;-46
2021/07/27 01:51:53;;;;;;;19.83;12.93;;;;;;;;;;5032419;28;20038;-47
2021/07/27 01:54:28;;;;;;;21.10;13.30;;;;;;;;;;5032218;28;20063;-47
2021/07/27 01:56:54;;;;;;;13.15;10.63;;;;;;;;;;5032139;28;20068;-46
2021/07/27 01:59:20;;;;;;;18.88;10.95;;;;;;;;;;5032108;28;20485;-45
2021/07/27 02:01:47;;;;;;;17.55;11.40;;;;;;;;;;5032106;28;20030;-46
2021/07/27 02:04:13;;;;;;;14.40;10.73;;;;;;;;;;5039458;28;20375;-47
2021/07/27 02:06:41;;;;;;;13.45;10.38;;;;;;;;;;5054163;28;20075;-45
2021/07/27 02:09:07;;;;;;;19.27;11.95;;;;;;;;;;5053902;28;20020;-46
2021/07/27 02:11:42;;;;;;;15.85;10.93;;;;;;;;;;5054000;28;20028;-46
2021/07/27 02:14:12;;;;;;;16.70;10.43;;;;;;;;;;5053793;28;20028;-46
2021/07/27 02:16:38;;;;;;;19.23;11.15;;;;;;;;;;5053873;28;20072;-45
2021/07/27 02:19:04;;;;;;;17.90;11.05;;;;;;;;;;5053777;28;20033;-46
2021/07/27 02:21:33;;;;;;;21.52;11.25;;;;;;;;;;5053795;28;20032;-47
2021/07/27 02:24:00;;;;;;;22.95;11.75;;;;;;;;;;5053909;28;20033;-47
2021/07/27 02:26:26;;;;;;;13.95;10.38;;;;;;;;;;5054104;28;20068;-47
2021/07/27 02:28:52;;;;;;;17.13;10.23;;;;;;;;;;5053658;28;20100;-46
2021/07/27 02:31:26;;;;;;;21.30;10.38;;;;;;;;;;5052543;28;20108;-47
2021/07/27 02:33:52;;;;;;;24.55;10.82;;;;;;;;;;5053482;28;20070;-47
2021/07/27 02:36:18;;;;;;;21.45;10.88;;;;;;;;;;5053330;28;20511;-46
2021/07/27 02:38:44;;;;;;;18.80;10.52;;;;;;;;;;5053264;28;20389;-47
2021/07/27 02:41:14;;;;;;;15.00;10.70;;;;;;;;;;5053499;28;20413;-47
2021/07/27 02:43:40;;;;;;;14.60;9.85;;;;;;;;;;5053782;28;20029;-46
2021/07/27 02:46:06;;;;;;;19.15;10.95;;;;;;;;;;5053246;28;20450;-45
2021/07/27 02:48:35;;;;;;;22.83;10.80;;;;;;;;;;5053389;28;20158;-47
2021/07/27 02:51:02;;;;;;;19.73;12.13;;;;;;;;;;5053325;28;20470;-47
2021/07/27 02:53:30;;;;;;;18.30;11.00;;;;;;;;;;5053543;28;20029;-46
2021/07/27 02:55:58;;;;;;;17.33;10.50;;;;;;;;;;5053520;28;20025;-46
2021/07/27 02:58:24;;;;;;;19.88;11.13;;;;;;;;;;5053476;28;20052;-46
2021/07/27 03:00:50;;;;;;;17.80;10.40;;;;;;;;;;5053735;28;20033;-46
2021/07/27 03:03:16;;;;;;;17.20;10.73;;;;;;;;;;5053302;28;20116;-47
2021/07/27 03:05:42;;;;;;;19.02;10.85;;;;;;;;;;5053224;28;20025;-47
2021/07/27 03:08:11;;;;;;;19.98;11.30;;;;;;;;;;5053101;28;20041;-47
2021/07/27 03:10:39;;;;;;;24.48;11.30;;;;;;;;;;5053357;28;20029;-47
2021/07/27 03:13:05;;;;;;;17.90;10.70;;;;;;;;;;5053348;28;20025;-48
2021/07/27 03:15:31;;;;;;;19.02;11.20;;;;;;;;;;5053022;28;20129;-47
2021/07/27 03:17:58;;;;;;;24.95;11.82;;;;;;;;;;5053224;28;20033;-46
2021/07/27 03:20:25;;;;;;;20.35;11.50;;;;;;;;;;5053176;28;20500;-46
2021/07/27 03:22:52;;;;;;;23.63;12.35;;;;;;;;;;5053047;28;20029;-47
2021/07/27 03:25:19;;;;;;;20.60;12.23;;;;;;;;;;5053331;28;20082;-45
2021/07/27 03:27:45;;;;;;;19.02;11.20;;;;;;;;;;5053292;28;20065;-46
2021/07/27 03:30:12;;;;;;;22.55;11.88;;;;;;;;;;5053322;28;20021;-47
2021/07/27 03:32:38;;;;;;;15.55;10.02;;;;;;;;;;5052967;28;20031;-47
2021/07/27 03:35:05;;;;;;;16.77;10.25;;;;;;;;;;5052991;28;20018;-45
2021/07/27 03:37:35;;;;;;;21.33;11.88;;;;;;;;;;5052909;28;20036;-47
2021/07/27 03:40:01;;;;;;;19.17;11.18;;;;;;;;;;5052969;28;20040;-47
2021/07/27 03:42:28;;;;;;;22.73;11.82;;;;;;;;;;5053227;28;20586;-46
2021/07/27 03:44:57;;;;;;;22.63;12.07;;;;;;;;;;5052879;28;20466;-46
2021/07/27 03:47:23;;;;;;;19.80;11.38;;;;;;;;;;5052904;28;20041;-47
2021/07/27 03:49:49;;;;;;;24.10;11.60;;;;;;;;;;5052664;28;20083;-47
2021/07/27 03:52:15;;;;;;;18.02;12.93;;;;;;;;;;5056835;28;20492;-48
2021/07/27 03:54:41;;;;;;;20.90;12.40;;;;;;;;;;5056646;28;20420;-48
2021/07/27 03:57:10;;;;;;;20.98;11.63;;;;;;;;;;5056905;28;20400;-47
2021/07/27 03:59:36;;;;;;;24.55;12.98;;;;;;;;;;5056620;28;20146;-51
2021/07/27 04:02:02;;;;;;;20.17;12.07;;;;;;;;;;5056458;28;20029;-47
2021/07/27 04:04:32;;;;;;;20.77;11.85;;;;;;;;;;5056216;28;20021;-45
2021/07/27 04:06:58;;;;;;;18.75;12.55;;;;;;;;;;5056575;28;20068;-47
2021/07/27 04:09:24;;;;;;;20.70;11.40;;;;;;;;;;5056350;28;20138;-47
2021/07/27 04:11:51;;;;;;;22.70;11.80;;;;;;;;;;5056499;28;20029;-47
2021/07/27 04:14:17;;;;;;;18.15;11.73;;;;;;;;;;5056513;28;20037;-45
2021/07/27 04:16:43;;;;;;;14.07;10.43;;;;;;;;;;5056150;28;20124;-44
2021/07/27 04:19:09;;;;;;;18.80;11.00;;;;;;;;;;5056005;28;20067;-45
2021/07/27 04:21:35;;;;;;;16.63;10.38;;;;;;;;;;5056303;28;20021;-46
2021/07/27 04:24:02;;;;;;;23.02;12.60;;;;;;;;;;5056233;28;20029;-47
2021/07/27 04:26:28;;;;;;;20.70;11.52;;;;;;;;;;5056109;28;20072;-51
2021/07/27 04:28:55;;;;;;;25.20;13.85;;;;;;;;;;5056274;28;20036;-47
2021/07/27 04:31:21;;;;;;;17.67;10.55;;;;;;;;;;5056081;28;20021;-45
2021/07/27 04:33:47;;;;;;;24.17;10.68;;;;;;;;;;5055856;28;20494;-45
2021/07/27 04:36:13;;;;;;;21.55;10.07;;;;;;;;;;5054135;28;20576;-47
2021/07/27 04:38:39;;;;;;;19.88;10.52;;;;;;;;;;5056044;28;20029;-46
2021/07/27 04:41:06;;;;;;;21.48;10.35;;;;;;;;;;5055940;28;20025;-46
2021/07/27 04:43:32;;;;;;;22.98;10.25;;;;;;;;;;5055899;28;20024;-47
2021/07/27 04:45:58;;;;;;;26.40;10.63;;;;;;;;;;5055706;28;20048;-46
2021/07/27 04:48:25;;;;;;;19.00;10.07;;;;;;;;;;5055549;28;20048;-45
2021/07/27 04:50:51;;;;;;;20.50;9.73;;;;;;;;;;5055449;28;20048;-47
2021/07/27 04:53:26;;;;;;;17.67;10.02;;;;;;;;;;5055583;28;20112;-46
2021/07/27 04:55:52;;;;;;;17.50;9.82;;;;;;;;;;5055542;28;20103;-47
2021/07/27 04:58:19;;;;;;;18.02;10.25;;;;;;;;;;5055426;28;20064;-46
2021/07/27 05:00:45;;;;;;;16.25;9.98;;;;;;;;;;5055432;28;20052;-47
2021/07/27 05:03:11;;;;;;;20.80;10.20;;;;;;;;;;5053679;28;20136;-47
2021/07/27 05:05:37;;;;;;;21.33;11.02;;;;;;;;;;5055162;28;20017;-46
2021/07/27 05:08:03;;;;;;;21.20;9.27;;;;;;;;;;5055354;28;20107;-47
2021/07/27 05:10:30;;;;;;;26.23;10.63;;;;;;;;;;5055464;28;20017;-48
2021/07/27 05:12:57;;;;;;;22.92;10.00;;;;;;;;;;5055306;28;20048;-45
2021/07/27 05:15:23;;;;;;;21.65;10.88;;;;;;;;;;5055043;28;20041;-47
2021/07/27 05:17:50;;;;;;;20.17;9.73;;;;;;;;;;5055330;28;20032;-47
2021/07/27 05:20:16;;;;;;;20.55;10.77;;;;;;;;;;5054964;28;20025;-50
2021/07/27 05:22:42;;;;;;;22.23;10.18;;;;;;;;;;5055424;28;20033;-47
2021/07/27 05:25:09;;;;;;;25.73;10.88;;;;;;;;;;5055068;28;20021;-52
2021/07/27 05:27:35;;;;;;;25.73;10.88;;;;;;;;;;5055234;28;20029;-48
2021/07/27 05:30:02;;;;;;;21.52;10.50;;;;;;;;;;5054853;28;20036;-46
2021/07/27 05:32:28;;;;;;;17.60;9.60;;;;;;;;;;5054882;28;20032;-45
2021/07/27 05:34:54;;;;;;;19.63;10.23;;;;;;;;;;5054844;28;20109;-44
2021/07/27 05:37:21;;;;;;;18.08;10.63;;;;;;;;;;5054701;28;20066;-46
2021/07/27 05:39:47;;;;;;;25.73;10.75;;;;;;;;;;5054891;28;20504;-46
2021/07/27 05:42:13;;;;;;;18.05;10.25;;;;;;;;;;5054717;28;20055;-47
2021/07/27 05:44:39;;;;;;;22.33;10.73;;;;;;;;;;5054503;28;20174;-45
2021/07/27 05:47:05;;;;;;;20.63;11.18;;;;;;;;;;5054419;28;20370;-44
2021/07/27 05:49:34;;;;;;;23.50;14.25;;;;;;;;;;5054347;28;20018;-46
2021/07/27 05:52:00;;;;;;;26.30;13.95;;;;;;;;;;5054359;28;20028;-44
2021/07/27 05:54:28;;;;;;;31.05;19.45;;;;;;;;;;5054362;28;20532;-44
2021/07/27 05:56:54;;;;;;;22.83;12.35;;;;;;;;;;5054404;28;20028;-44
2021/07/27 05:59:21;;;;;;;19.50;11.40;;;;;;;;;;5053098;28;20052;-44
2021/07/27 06:01:47;;;;;;;22.25;10.35;;;;;;;;;;5054316;28;20032;-43
2021/07/27 06:04:14;;;;;;;23.17;10.70;;;;;;;;;;5054022;28;20029;-44
2021/07/27 06:06:40;;;;;;;22.10;11.55;;;;;;;;;;5054234;28;20465;-45
2021/07/27 06:09:07;;;;;;;21.25;11.10;;;;;;;;;;5054089;28;20474;-45
2021/07/27 06:11:39;;;;;;;23.50;10.52;;;;;;;;;;5054022;28;20100;-46
2021/07/27 06:14:06;;;;;;;18.58;9.90;;;;;;;;;;5053663;28;20045;-48
2021/07/27 06:16:34;;;;;;;21.40;11.63;;;;;;;;;;5053878;28;20049;-46
2021/07/27 06:19:00;;;;;;;23.67;14.10;;;;;;;;;;5053934;28;20105;-46
2021/07/27 06:21:27;;;;;;;34.97;15.40;;;;;;;;;;5053871;28;20021;-46
2021/07/27 06:23:53;;;;;;;23.30;12.48;;;;;;;;;;5053782;28;20108;-47
2021/07/27 06:26:19;;;;;;;22.77;12.55;;;;;;;;;;5053862;28;20021;-45
2021/07/27 06:28:45;;;;;;;26.30;12.65;;;;;;;;;;5053742;28;20029;-44
2021/07/27 06:31:12;;;;;;;18.05;11.98;;;;;;;;;;5053724;28;20052;-46
2021/07/27 06:33:41;;;;;;;23.88;11.15;;;;;;;;;;5053552;28;20043;-46
2021/07/27 06:36:07;;;;;;;34.60;19.40;;;;;;;;;;5053836;28;20104;-44
2021/07/27 06:38:34;;;;;;;25.88;14.73;;;;;;;;;;5053606;28;20025;-45
2021/07/27 06:41:00;;;;;;;29.38;13.75;;;;;;;;;;5053663;28;20052;-46
2021/07/27 06:43:27;;;;;;;19.30;9.55;;;;;;;;;;5053520;28;20056;-46
2021/07/27 06:45:54;;;;;;;21.80;11.93;;;;;;;;;;5053381;28;20381;-45
2021/07/27 06:48:20;;;;;;;24.05;11.73;;;;;;;;;;5053415;28;20048;-45
2021/07/27 06:50:46;;;;;;;17.75;8.90;;;;;;;;;;5053559;28;20022;-46
2021/07/27 06:53:12;;;;;;;24.45;13.27;;;;;;;;;;5053571;28;20029;-47
2021/07/27 06:55:38;;;;;;;26.33;11.55;;;;;;;;;;5053516;28;20021;-46
2021/07/27 06:58:04;;;;;;;25.35;14.88;;;;;;;;;;5053469;28;20025;-53
2021/07/27 07:00:30;;;;;;;22.23;9.07;;;;;;;;;;5053424;28;20021;-44
2021/07/27 07:02:57;;;;;;;18.60;10.82;;;;;;;;;;5053509;28;20444;-45
2021/07/27 07:05:23;;;;;;;17.67;10.77;;;;;;;;;;5053215;28;20103;-43
2021/07/27 07:07:49;;;;;;;20.00;9.85;;;;;;;;;;5053133;28;20048;-44
2021/07/27 07:10:15;;;;;;;20.50;7.00;;;;;;;;;;5053409;28;20104;-43
2021/07/27 07:12:41;;;;;;;21.70;12.48;;;;;;;;;;5053411;28;20060;-44
2021/07/27 07:15:07;;;;;;;24.70;10.05;;;;;;;;;;5052961;28;20055;-45
2021/07/27 07:17:33;;;;;;;21.55;8.68;;;;;;;;;;5053162;28;20039;-45
2021/07/27 07:20:00;;;;;;;22.73;9.40;;;;;;;;;;5051634;28;20040;-44
2021/07/27 07:22:29;;;;;;;14.25;7.82;;;;;;;;;;5053162;28;20100;-45
2021/07/27 07:24:55;;;;;;;17.20;8.70;;;;;;;;;;5053269;28;20071;-44
2021/07/27 07:27:21;;;;;;;32.03;14.32;;;;;;;;;;5057118;28;20041;-44
2021/07/27 07:29:47;;;;;;;24.13;13.38;;;;;;;;;;5057227;28;20028;-45
2021/07/27 07:32:13;;;;;;;22.50;10.40;;;;;;;;;;5057077;28;20028;-47
2021/07/27 07:34:40;;;;;;;12.02;7.22;;;;;;;;;;5057093;28;20021;-46
2021/07/27 07:37:08;;;;;;;14.73;8.20;;;;;;;;;;5057212;28;20104;-46
2021/07/27 07:39:35;;;;;;;17.90;6.97;;;;;;;;;;5056998;28;20021;-45
2021/07/27 07:42:04;;;;;;;14.50;6.80;;;;;;;;;;5057202;28;20443;-47
2021/07/27 07:44:30;;;;;;;18.77;8.80;;;;;;;;;;5056952;28;20033;-47
2021/07/27 07:46:57;;;;;;;16.98;8.18;;;;;;;;;;5056672;28;20041;-47
2021/07/27 07:49:23;;;;;;;16.55;8.77;;;;;;;;;;5056271;28;20014;-47
2021/07/27 07:51:50;;;;;;;17.45;8.35;;;;;;;;;;5056168;28;20036;-45
2021/07/27 07:54:16;;;;;;;14.10;6.75;;;;;;;;;;5056135;28;20078;-46
2021/07/27 07:56:43;;;;;;;20.35;10.90;;;;;;;;;;5055984;28;20033;-48
2021/07/27 07:59:09;;;;;;;23.67;13.20;;;;;;;;;;5056040;28;20021;-46
2021/07/27 08:01:35;;;;;;;16.05;6.97;;;;;;;;;;5056060;28;20024;-46
2021/07/27 08:04:01;;;;;;;23.30;10.93;;;;;;;;;;5055878;28;20028;-46
2021/07/27 08:06:29;;;;;;;20.48;9.77;;;;;;;;;;5052991;28;20021;-47
2021/07/27 08:08:55;;;;;;;17.60;8.57;;;;;;;;;;5055931;28;20418;-47
2021/07/27 08:11:21;;;;;;;18.33;8.20;;;;;;;;;;5055918;28;20021;-46
2021/07/27 08:13:48;;;;;;;18.85;8.55;;;;;;;;;;5052127;28;20029;-45
2021/07/27 08:16:14;;;;;;;19.70;6.80;;;;;;;;;;5055257;28;20541;-46
2021/07/27 08:18:40;;;;;;;15.50;8.05;;;;;;;;;;5055436;28;20031;-47
2021/07/27 08:21:06;;;;;;;16.70;7.07;;;;;;;;;;5055432;28;20017;-45
2021/07/27 08:23:32;;;;;;;29.20;10.88;;;;;;;;;;5055607;28;20028;-47
2021/07/27 08:25:59;;;;;;;31.95;14.57;;;;;;;;;;5055567;28;20017;-48
2021/07/27 08:28:26;;;;;;;42.67;28.33;;;;;;;;;;5055459;28;20032;-47
2021/07/27 08:30:52;;;;;;;22.65;8.13;;;;;;;;;;5055498;28;20025;-46
2021/07/27 08:33:23;;;;;;;17.42;5.60;;;;;;;;;;5055531;28;20033;-45
2021/07/27 08:35:49;;;;;;;21.05;8.18;;;;;;;;;;5055218;28;20146;-45
2021/07/27 08:38:15;;;;;;;35.17;11.38;;;;;;;;;;5055161;28;20029;-44
2021/07/27 08:40:42;;;;;;;15.85;5.70;;;;;;;;;;5055338;28;20020;-44
2021/07/27 08:43:11;;;;;;;12.77;6.57;;;;;;;;;;5055195;28;20104;-41
2021/07/27 08:45:37;;;;;;;18.23;5.93;;;;;;;;;;5039142;28;20061;-42
2021/07/27 08:48:03;;;;;;;20.88;10.18;;;;;;;;;;5034633;28;20045;-41
2021/07/27 08:50:30;;;;;;;24.55;8.00;;;;;;;;;;5034123;28;20021;-42
2021/07/27 08:52:56;;;;;;;16.23;5.25;;;;;;;;;;5034421;28;20056;-41
2021/07/27 08:55:22;;;;;;;16.00;6.20;;;;;;;;;;5034070;28;20021;-42
2021/07/27 08:57:56;;;;;;;17.17;5.45;;;;;;;;;;5034730;28;20036;-42
2021/07/27 09:00:22;;;;;;;18.30;5.20;;;;;;;;;;5035423;28;20022;-42
2021/07/27 09:02:48;;;;;;;15.93;5.38;;;;;;;;;;5035281;28;20033;-42
2021/07/27 09:05:14;;;;;;;16.77;5.07;;;;;;;;;;5035417;28;20079;-41
2021/07/27 09:07:40;;;;;;;9.88;5.53;;;;;;;;;;5035473;28;20038;-41
2021/07/27 09:10:12;;;;;;;19.10;5.10;;;;;;;;;;5035204;28;20025;-41
2021/07/27 09:12:39;;;;;;;13.30;5.82;;;;;;;;;;5035364;28;20025;-41
2021/07/27 09:15:06;;;;;;;18.00;5.80;;;;;;;;;;5044216;28;20087;-41
2021/07/27 09:17:32;;;;;;;16.77;5.07;;;;;;;;;;5055032;28;20033;-41
2021/07/27 09:19:58;;;;;;;16.15;5.43;;;;;;;;;;5055059;28;20385;-42
2021/07/27 09:22:24;;;;;;;13.82;5.60;;;;;;;;;;5054910;28;20021;-42
2021/07/27 09:24:51;;;;;;;17.08;5.20;;;;;;;;;;5054902;28;20473;-42
2021/07/27 09:27:27;;;;;;;18.38;4.47;;;;;;;;;;5054871;28;20035;-43
2021/07/27 09:29:53;;;;;;;15.77;5.32;;;;;;;;;;5055321;28;20024;-42
2021/07/27 09:32:20;;;;;;;14.63;5.43;;;;;;;;;;5054566;28;20033;-42
2021/07/27 09:34:47;;;;;;;14.35;4.85;;;;;;;;;;5054901;28;20021;-42
2021/07/27 09:37:14;;;;;;;10.43;4.43;;;;;;;;;;5054618;28;20025;-41
2021/07/27 09:39:40;;;;;;;16.75;5.20;;;;;;;;;;5054754;28;20040;-42
2021/07/27 09:42:08;;;;;;;14.80;4.00;;;;;;;;;;5054676;28;20017;-41
2021/07/27 09:44:34;;;;;;;14.40;4.13;;;;;;;;;;5054361;28;20033;-41
2021/07/27 09:47:01;;;;;;;18.65;4.47;;;;;;;;;;5054417;28;20539;-42
2021/07/27 09:49:27;;;;;;;13.30;5.32;;;;;;;;;;5053697;28;20028;-42
2021/07/27 09:51:54;;;;;;;12.15;4.05;;;;;;;;;;5054481;28;20071;-43
2021/07/27 09:54:21;;;;;;;12.05;4.20;;;;;;;;;;5054306;28;20029;-42
2021/07/27 09:56:50;;;;;;;13.75;4.22;;;;;;;;;;5054297;28;20017;-43
2021/07/27 09:59:17;;;;;;;12.82;3.92;;;;;;;;;;5053830;28;20017;-42
2021/07/27 10:01:48;;;;;;;13.38;4.25;;;;;;;;;;5053861;28;20025;-44
2021/07/27 10:04:14;;;;;;;;;;;;;;;;;;5054731;28;20057;-42
2021/07/27 10:06:47;;;;;;;32.42;16.65;;;;;;;;;;5053848;28;19932;-42
2021/07/27 10:09:22;;;;;;;17.50;10.07;;;;;;;;;;5054138;28;20104;-41
2021/07/27 10:11:48;;;;;;;22.70;6.45;;;;;;;;;;5053882;28;20056;-42
2021/07/27 10:14:16;;;;;;;12.93;5.50;;;;;;;;;;5053648;28;20036;-41
2021/07/27 10:16:42;;;;;;;16.15;3.97;;;;;;;;;;5053661;28;20045;-42
2021/07/27 10:19:12;;;;;;;15.52;5.20;;;;;;;;;;5053910;28;20075;-43
2021/07/27 10:21:38;;;;;;;27.00;12.63;;;;;;;;;;5053763;28;20078;-42
2021/07/27 10:24:13;;;;;;;14.20;5.13;;;;;;;;;;5053754;28;20021;-42
2021/07/27 10:26:40;;;;;;;22.48;7.78;;;;;;;;;;5053659;28;20388;-44
2021/07/27 10:29:06;;;;;;;14.25;4.43;;;;;;;;;;5053400;28;20401;-43
2021/07/27 10:31:36;;;;;;;12.48;4.40;;;;;;;;;;5053887;28;20381;-43
2021/07/27 10:34:03;;;;;;;;;;;;;;;;;;5053939;28;20032;-43
2021/07/27 10:36:31;;;;;;;24.50;9.38;;;;;;;;;;5053433;28;20003;-43
2021/07/27 10:39:14;;;;;;;16.60;4.72;;;;;;;;;;5053981;28;20021;-43
2021/07/27 10:41:44;;;;;;;40.33;25.67;;;;;;;;;;5053487;28;20029;-43
2021/07/27 10:44:11;;;;;;;21.90;9.68;;;;;;;;;;5053321;28;20025;-43
2021/07/27 10:46:41;;;;;;;34.78;19.70;;;;;;;;;;5053217;28;20060;-43
2021/07/27 10:49:14;;;;;;;26.30;14.90;;;;;;;;;;5053326;28;20025;-43
2021/07/27 10:51:40;;;;;;;21.55;9.27;;;;;;;;;;5053134;28;20477;-43
2021/07/27 10:54:07;;;;;;;20.13;5.97;;;;;;;;;;5053311;28;20109;-44
2021/07/27 10:56:33;;;;;;;10.43;3.63;;;;;;;;;;5053241;28;20075;-43
2021/07/27 10:59:00;;;;;;;15.80;3.58;;;;;;;;;;5053187;28;20380;-43
2021/07/27 11:01:30;;;;;;;13.98;4.38;;;;;;;;;;5053190;28;20048;-43
2021/07/27 11:04:07;;;;;;;21.55;5.25;;;;;;;;;;5053181;28;20025;-44
2021/07/27 11:06:33;;;;;;;18.40;4.07;;;;;;;;;;5053085;28;20050;-44
2021/07/27 11:09:00;;;;;;;17.02;6.35;;;;;;;;;;5052967;28;20033;-45
2021/07/27 11:11:26;;;;;;;24.40;11.65;;;;;;;;;;5053178;28;20040;-45
2021/07/27 11:13:53;;;;;;;15.00;4.28;;;;;;;;;;5053060;28;20021;-43
2021/07/27 11:16:19;;;;;;;14.05;5.47;;;;;;;;;;5052904;28;20087;-44
2021/07/27 11:18:46;;;;;;;19.52;5.18;;;;;;;;;;5053003;28;20090;-44
2021/07/27 11:21:12;;;;;;;14.05;4.47;;;;;;;;;;5052846;28;20393;-44
2021/07/27 11:23:38;;;;;;;15.75;4.18;;;;;;;;;;5052892;28;20474;-44
2021/07/27 11:26:05;;;;;;;32.13;15.80;;;;;;;;;;5052941;28;20071;-43
2021/07/27 11:28:38;;;;;;;48.85;28.05;;;;;;;;;;5052846;28;20033;-46
2021/07/27 11:31:16;;;;;;;89.03;44.90;;;;;;;;;;5052855;28;20105;-44
2021/07/27 11:33:54;;;;;;;21.35;6.68;;;;;;;;;;5052847;28;20029;-44
2021/07/27 11:36:21;;;;;;;11.60;4.03;;;;;;;;;;5052426;28;20095;-44
2021/07/27 11:38:48;;;;;;;15.43;4.15;;;;;;;;;;5053011;28;20413;-43
2021/07/27 11:41:14;;;;;;;13.25;4.05;;;;;;;;;;5052739;28;20060;-44
2021/07/27 11:43:41;;;;;;;13.75;4.18;;;;;;;;;;5053075;28;20029;-43
2021/07/27 11:46:08;;;;;;;29.92;18.60;;;;;;;;;;5052445;28;20025;-43
2021/07/27 11:48:35;;;;;;;32.80;16.38;;;;;;;;;;5052625;28;20037;-44
2021/07/27 11:51:02;;;;;;;37.35;19.92;;;;;;;;;;5051378;28;20045;-42
2021/07/27 11:53:31;;;;;;;32.33;17.70;;;;;;;;;;5052647;28;20029;-44
2021/07/27 11:55:58;;;;;;;34.17;16.23;;;;;;;;;;5052804;28;20029;-44
2021/07/27 11:58:28;;;;;;;64.03;46.85;;;;;;;;;;5052319;28;20029;-43
2021/07/27 12:00:57;;;;;;;38.13;24.27;;;;;;;;;;5052507;28;20115;-43
2021/07/27 12:03:24;;;;;;;34.10;22.88;;;;;;;;;;5052539;28;20036;-44
2021/07/27 12:05:50;;;;;;;16.10;7.20;;;;;;;;;;5052407;28;20146;-44
2021/07/27 12:08:17;;;;;;;30.02;19.23;;;;;;;;;;5052554;28;20033;-44
2021/07/27 12:10:44;;;;;;;76.40;55.35;;;;;;;;;;5052579;28;20384;-44
2021/07/27 12:13:10;;;;;;;26.40;16.98;;;;;;;;;;5055743;28;20496;-43
2021/07/27 12:15:36;;;;;;;42.20;29.42;;;;;;;;;;5055986;28;20079;-44
2021/07/27 12:18:02;;;;;;;14.65;5.53;;;;;;;;;;5056051;28;20033;-43
2021/07/27 12:20:28;;;;;;;11.70;4.90;;;;;;;;;;5056093;28;20055;-43
2021/07/27 12:22:54;;;;;;;22.85;12.05;;;;;;;;;;5055899;28;20036;-44
2021/07/27 12:25:20;;;;;;;13.60;6.20;;;;;;;;;;5056043;28;20043;-44
2021/07/27 12:27:46;;;;;;;14.25;4.07;;;;;;;;;;5056087;28;20072;-45
2021/07/27 12:30:13;;;;;;;10.63;3.53;;;;;;;;;;5056153;28;20021;-45
2021/07/27 12:32:39;;;;;;;9.98;3.50;;;;;;;;;;5056078;28;20042;-43
2021/07/27 12:35:05;;;;;;;21.42;14.38;;;;;;;;;;5055895;28;20067;-43
2021/07/27 12:37:31;;;;;;;17.38;6.05;;;;;;;;;;5055831;28;20477;-43
2021/07/27 12:39:57;;;;;;;34.72;24.80;;;;;;;;;;5055845;28;20036;-44
2021/07/27 12:42:24;;;;;;;75.32;57.45;;;;;;;;;;5055672;28;20025;-43
2021/07/27 12:44:50;;;;;;;15.23;6.13;;;;;;;;;;5055585;28;20036;-43
2021/07/27 12:47:16;;;;;;;19.08;8.13;;;;;;;;;;5055467;28;20047;-44
2021/07/27 12:49:42;;;;;;;14.20;4.53;;;;;;;;;;5055571;28;20051;-44
2021/07/27 12:52:11;;;;;;;18.55;4.15;;;;;;;;;;5055494;28;20029;-43
2021/07/27 12:54:40;;;;;;;17.75;4.80;;;;;;;;;;5055642;28;20052;-43
2021/07/27 12:57:06;;;;;;;15.93;4.55;;;;;;;;;;5055078;28;20024;-44
2021/07/27 12:59:33;;;;;;;19.83;4.88;;;;;;;;;;5054852;28;20025;-43
2021/07/27 13:01:59;;;;;;;15.68;4.07;;;;;;;;;;5054708;28;20481;-43
2021/07/27 13:04:25;;;;;;;13.60;3.92;;;;;;;;;;5054758;28;20028;-44
2021/07/27 13:06:52;;;;;;;14.23;4.40;;;;;;;;;;5054713;28;20096;-44
2021/07/27 13:09:18;;;;;;;8.52;3.15;;;;;;;;;;5054909;28;20033;-44
2021/07/27 13:11:44;;;;;;;11.25;3.67;;;;;;;;;;5054726;28;20061;-44
2021/07/27 13:14:10;;;;;;;16.67;4.40;;;;;;;;;;5053729;28;20033;-45
2021/07/27 13:16:36;;;;;;;9.10;3.40;;;;;;;;;;5055130;28;20516;-44
2021/07/27 13:19:02;;;;;;;16.92;5.55;;;;;;;;;;5054962;28;20041;-44
2021/07/27 13:21:29;;;;;;;10.95;4.03;;;;;;;;;;5054988;28;20086;-43
2021/07/27 13:23:55;;;;;;;16.52;3.72;;;;;;;;;;5054297;28;20060;-44
2021/07/27 13:26:22;;;;;;;15.63;4.43;;;;;;;;;;5055295;28;20032;-44
2021/07/27 13:28:48;;;;;;;17.48;3.65;;;;;;;;;;5055002;28;20036;-44
2021/07/27 13:31:15;;;;;;;14.70;4.32;;;;;;;;;;5054929;28;20032;-44
2021/07/27 13:33:42;;;;;;;15.00;4.47;;;;;;;;;;5055088;28;20064;-44
2021/07/27 13:36:09;;;;;;;13.95;4.47;;;;;;;;;;5054958;28;20025;-43
2021/07/27 13:38:35;;;;;;;16.02;4.45;;;;;;;;;;5054717;28;20032;-44
2021/07/27 13:41:01;;;;;;;12.32;4.20;;;;;;;;;;5054689;28;20048;-44
2021/07/27 13:43:27;;;;;;;20.35;4.43;;;;;;;;;;5054723;28;20021;-43
2021/07/27 13:45:53;;;;;;;13.13;3.80;;;;;;;;;;5054652;28;20095;-44
2021/07/27 13:48:20;;;;;;;9.43;3.78;;;;;;;;;;5054439;28;20041;-45
2021/07/27 13:50:46;;;;;;;18.88;4.20;;;;;;;;;;5054447;28;20021;-43
2021/07/27 13:53:12;;;;;;;17.50;4.25;;;;;;;;;;5054327;28;20363;-44
2021/07/27 13:55:38;;;;;;;13.95;3.70;;;;;;;;;;5054458;28;20021;-44
2021/07/27 13:58:04;;;;;;;18.60;5.75;;;;;;;;;;5054208;28;20492;-44
2021/07/27 14:00:30;;;;;;;17.23;5.65;;;;;;;;;;5054316;28;20100;-46
2021/07/27 14:02:56;;;;;;;29.05;16.80;;;;;;;;;;5054256;28;20078;-45
2021/07/27 14:05:23;;;;;;;13.25;4.18;;;;;;;;;;5054315;28;20048;-45
2021/07/27 14:07:50;;;;;;;21.35;8.68;;;;;;;;;;5054050;28;20029;-43
2021/07/27 14:10:16;;;;;;;13.13;4.13;;;;;;;;;;5054035;28;20032;-45
2021/07/27 14:12:42;;;;;;;10.90;4.03;;;;;;;;;;5054154;28;20098;-45
2021/07/27 14:15:09;;;;;;;11.27;3.38;;;;;;;;;;5053718;28;20405;-45
2021/07/27 14:17:35;;;;;;;20.50;9.35;;;;;;;;;;5053953;28;20033;-45
2021/07/27 14:20:01;;;;;;;18.35;4.25;;;;;;;;;;5053801;28;20079;-44
2021/07/27 14:22:28;;;;;;;13.48;3.55;;;;;;;;;;5053979;28;20104;-43
2021/07/27 14:24:54;;;;;;;16.48;4.57;;;;;;;;;;5053456;28;20021;-46
2021/07/27 14:27:20;;;;;;;16.45;4.18;;;;;;;;;;5053641;28;20040;-44
2021/07/27 14:29:46;;;;;;;21.15;10.07;;;;;;;;;;5053707;28;20024;-43
2021/07/27 14:32:13;;;;;;;12.25;4.65;;;;;;;;;;5053840;28;20057;-43
2021/07/27 14:34:39;;;;;;;16.52;4.57;;;;;;;;;;5053128;28;20454;-42
2021/07/27 14:37:06;;;;;;;13.25;3.45;;;;;;;;;;5053545;28;20497;-43
2021/07/27 14:39:33;;;;;;;37.40;23.08;;;;;;;;;;5053763;28;20057;-43
2021/07/27 14:41:59;;;;;;;16.23;5.03;;;;;;;;;;5053592;28;20485;-43